sensor_id;sensor_type;location;lat;lon;timestamp;temperature;humidity
2407;DHT22;37709;53.480;9.688;2023-06-22T00:34:48;27.20;99.90
2407;DHT22;37709;53.480;9.688;2023-06-22T00:37:18;15.20;99.90
2407;DHT22;37709;53.480;9.688;2023-06-22T00:39:45;14.80;99.90
2407;DHT22;37709;53.480;9.688;2023-06-22T00:42:13;14.70;99.90
2407;DHT22;37709;53.480;9.688;2023-06-22T00:44:40;14.70;99.90
2407;DHT22;37709;53.480;9.688;2023-06-22T00:47:08;14.70;99.90
2407;DHT22;37709;53.480;9.688;2023-06-22T00:49:35;14.70;99.90
2407;DHT22;37709;53.480;9.688;2023-06-22T00:52:04;14.70;99.90
2407;DHT22;37709;53.480;9.688;2023-06-22T00:54:36;14.80;99.90
2407;DHT22;37709;53.480;9.688;2023-06-22T00:57:04;14.80;99.90
2407;DHT22;37709;53.480;9.688;2023-06-22T00:59:32;14.70;99.90
2407;DHT22;37709;53.480;9.688;2023-06-22T01:02:00;14.70;99.90
2407;DHT22;37709;53.480;9.688;2023-06-22T01:04:35;14.70;99.90
2407;DHT22;37709;53.480;9.688;2023-06-22T01:07:20;14.70;99.90
2407;DHT22;37709;53.480;9.688;2023-06-22T01:10:21;14.60;99.90
2407;DHT22;37709;53.480;9.688;2023-06-22T01:12:50;14.50;99.90
2407;DHT22;37709;53.480;9.688;2023-06-22T01:15:34;14.50;99.90
2407;DHT22;37709;53.480;9.688;2023-06-22T01:18:04;14.40;99.90
2407;DHT22;37709;53.480;9.688;2023-06-22T01:20:34;14.30;99.90
2407;DHT22;37709;53.480;9.688;2023-06-22T01:23:26;14.30;99.90
2407;DHT22;37709;53.480;9.688;2023-06-22T01:26:02;14.20;99.90
2407;DHT22;37709;53.480;9.688;2023-06-22T01:28:45;14.20;99.90
2407;DHT22;37709;53.480;9.688;2023-06-22T01:31:16;14.20;99.90
2407;DHT22;37709;53.480;9.688;2023-06-22T01:33:50;14.00;99.90
2407;DHT22;37709;53.480;9.688;2023-06-22T01:36:19;14.00;99.90
2407;DHT22;37709;53.480;9.688;2023-06-22T01:38:47;14.00;99.90
2407;DHT22;37709;53.480;9.688;2023-06-22T01:41:16;13.90;99.90
2407;DHT22;37709;53.480;9.688;2023-06-22T01:43:48;13.90;99.90
2407;DHT22;37709;53.480;9.688;2023-06-22T01:46:16;14.00;99.90
2407;DHT22;37709;53.480;9.688;2023-06-22T01:48:47;14.00;99.90
2407;DHT22;37709;53.480;9.688;2023-06-22T01:51:15;14.00;99.90
2407;DHT22;37709;53.480;9.688;2023-06-22T01:53:42;14.00;99.90
2407;DHT22;37709;53.480;9.688;2023-06-22T01:56:09;13.90;99.90
2407;DHT22;37709;53.480;9.688;2023-06-22T01:58:41;13.90;99.90
2407;DHT22;37709;53.480;9.688;2023-06-22T02:01:11;13.90;99.90
2407;DHT22;37709;53.480;9.688;2023-06-22T02:03:52;13.80;99.90
2407;DHT22;37709;53.480;9.688;2023-06-22T02:06:27;13.70;99.90
2407;DHT22;37709;53.480;9.688;2023-06-22T02:08:59;13.70;99.90
2407;DHT22;37709;53.480;9.688;2023-06-22T02:11:29;13.60;99.90
2407;DHT22;37709;53.480;9.688;2023-06-22T02:13:58;13.60;99.90
2407;DHT22;37709;53.480;9.688;2023-06-22T02:16:26;13.60;99.90
2407;DHT22;37709;53.480;9.688;2023-06-22T02:18:56;13.60;99.90
2407;DHT22;37709;53.480;9.688;2023-06-22T02:21:30;13.50;99.90
2407;DHT22;37709;53.480;9.688;2023-06-22T02:23:58;13.60;99.90
2407;DHT22;37709;53.480;9.688;2023-06-22T02:26:29;13.60;99.90
2407;DHT22;37709;53.480;9.688;2023-06-22T02:28:57;13.50;99.90
2407;DHT22;37709;53.480;9.688;2023-06-22T02:31:24;13.40;99.90
2407;DHT22;37709;53.480;9.688;2023-06-22T02:33:58;13.40;99.90
2407;DHT22;37709;53.480;9.688;2023-06-22T02:36:26;13.40;99.90
2407;DHT22;37709;53.480;9.688;2023-06-22T02:39:00;13.50;99.90
2407;DHT22;37709;53.480;9.688;2023-06-22T02:41:30;13.50;99.90
2407;DHT22;37709;53.480;9.688;2023-06-22T02:43:57;13.30;99.90
2407;DHT22;37709;53.480;9.688;2023-06-22T02:46:25;13.30;99.90
2407;DHT22;37709;53.480;9.688;2023-06-22T02:48:53;13.40;99.90
2407;DHT22;37709;53.480;9.688;2023-06-22T02:51:21;13.40;99.90
2407;DHT22;37709;53.480;9.688;2023-06-22T02:53:48;13.50;99.90
2407;DHT22;37709;53.480;9.688;2023-06-22T02:56:16;13.50;99.90
2407;DHT22;37709;53.480;9.688;2023-06-22T02:58:44;13.50;99.90
2407;DHT22;37709;53.480;9.688;2023-06-22T03:01:12;13.50;99.90
2407;DHT22;37709;53.480;9.688;2023-06-22T03:03:45;13.30;99.90
2407;DHT22;37709;53.480;9.688;2023-06-22T03:06:12;13.20;99.90
2407;DHT22;37709;53.480;9.688;2023-06-22T03:08:41;13.10;99.90
2407;DHT22;37709;53.480;9.688;2023-06-22T03:11:08;13.10;99.90
2407;DHT22;37709;53.480;9.688;2023-06-22T03:13:36;13.10;99.90
2407;DHT22;37709;53.480;9.688;2023-06-22T03:16:03;13.10;99.90
2407;DHT22;37709;53.480;9.688;2023-06-22T03:18:31;13.10;99.90
2407;DHT22;37709;53.480;9.688;2023-06-22T03:20:58;13.10;99.90
2407;DHT22;37709;53.480;9.688;2023-06-22T03:23:27;13.10;99.90
2407;DHT22;37709;53.480;9.688;2023-06-22T03:25:55;13.20;99.90
2407;DHT22;37709;53.480;9.688;2023-06-22T03:28:25;13.30;99.90
2407;DHT22;37709;53.480;9.688;2023-06-22T03:30:52;13.40;99.90
2407;DHT22;37709;53.480;9.688;2023-06-22T03:33:20;13.50;99.90
2407;DHT22;37709;53.480;9.688;2023-06-22T03:35:49;13.60;99.90
2407;DHT22;37709;53.480;9.688;2023-06-22T03:38:17;13.70;99.90
2407;DHT22;37709;53.480;9.688;2023-06-22T03:40:44;13.70;99.90
2407;DHT22;37709;53.480;9.688;2023-06-22T03:43:14;13.70;99.90
2407;DHT22;37709;53.480;9.688;2023-06-22T03:45:42;13.80;99.90
2407;DHT22;37709;53.480;9.688;2023-06-22T03:48:13;13.80;99.90
2407;DHT22;37709;53.480;9.688;2023-06-22T03:50:40;14.00;99.90
2407;DHT22;37709;53.480;9.688;2023-06-22T03:53:08;14.20;99.90
2407;DHT22;37709;53.480;9.688;2023-06-22T03:55:35;14.30;99.90
2407;DHT22;37709;53.480;9.688;2023-06-22T03:58:02;14.40;99.90
2407;DHT22;37709;53.480;9.688;2023-06-22T04:00:32;14.50;99.90
2407;DHT22;37709;53.480;9.688;2023-06-22T04:03:05;14.60;99.90
2407;DHT22;37709;53.480;9.688;2023-06-22T04:05:35;14.70;99.90
2407;DHT22;37709;53.480;9.688;2023-06-22T04:08:03;14.80;99.90
2407;DHT22;37709;53.480;9.688;2023-06-22T04:10:30;14.90;99.90
2407;DHT22;37709;53.480;9.688;2023-06-22T04:12:59;14.90;99.90
2407;DHT22;37709;53.480;9.688;2023-06-22T04:15:26;15.00;99.90
2407;DHT22;37709;53.480;9.688;2023-06-22T04:17:54;15.10;99.90
2407;DHT22;37709;53.480;9.688;2023-06-22T04:20:22;15.20;99.90
2407;DHT22;37709;53.480;9.688;2023-06-22T04:22:56;15.20;99.90
2407;DHT22;37709;53.480;9.688;2023-06-22T04:25:23;15.30;99.90
2407;DHT22;37709;53.480;9.688;2023-06-22T04:27:50;15.50;99.90
2407;DHT22;37709;53.480;9.688;2023-06-22T04:30:18;15.60;99.90
2407;DHT22;37709;53.480;9.688;2023-06-22T04:32:46;15.60;99.90
2407;DHT22;37709;53.480;9.688;2023-06-22T04:35:24;15.70;99.90
2407;DHT22;37709;53.480;9.688;2023-06-22T04:37:53;15.80;99.90
2407;DHT22;37709;53.480;9.688;2023-06-22T04:40:22;15.90;99.90
2407;DHT22;37709;53.480;9.688;2023-06-22T04:42:50;16.00;99.90
2407;DHT22;37709;53.480;9.688;2023-06-22T04:45:21;16.20;99.90
2407;DHT22;37709;53.480;9.688;2023-06-22T04:47:49;16.30;99.90
2407;DHT22;37709;53.480;9.688;2023-06-22T04:50:20;16.40;99.90
2407;DHT22;37709;53.480;9.688;2023-06-22T04:52:49;16.50;99.90
2407;DHT22;37709;53.480;9.688;2023-06-22T04:55:17;16.60;99.90
2407;DHT22;37709;53.480;9.688;2023-06-22T04:57:46;16.70;99.90
2407;DHT22;37709;53.480;9.688;2023-06-22T05:00:18;16.90;99.90
2407;DHT22;37709;53.480;9.688;2023-06-22T05:02:50;17.00;99.90
2407;DHT22;37709;53.480;9.688;2023-06-22T05:05:17;17.10;99.90
2407;DHT22;37709;53.480;9.688;2023-06-22T05:07:46;17.20;99.90
2407;DHT22;37709;53.480;9.688;2023-06-22T05:10:15;17.30;99.90
2407;DHT22;37709;53.480;9.688;2023-06-22T05:12:43;17.40;99.90
2407;DHT22;37709;53.480;9.688;2023-06-22T05:15:11;17.60;99.90
2407;DHT22;37709;53.480;9.688;2023-06-22T05:17:39;17.70;99.90
2407;DHT22;37709;53.480;9.688;2023-06-22T05:20:11;17.90;99.90
2407;DHT22;37709;53.480;9.688;2023-06-22T05:22:39;18.20;99.90
2407;DHT22;37709;53.480;9.688;2023-06-22T05:25:09;18.40;99.90
2407;DHT22;37709;53.480;9.688;2023-06-22T05:27:37;18.60;99.90
2407;DHT22;37709;53.480;9.688;2023-06-22T05:30:08;18.70;99.90
2407;DHT22;37709;53.480;9.688;2023-06-22T05:32:39;18.70;99.90
2407;DHT22;37709;53.480;9.688;2023-06-22T05:35:08;18.80;99.90
2407;DHT22;37709;53.480;9.688;2023-06-22T05:37:35;18.90;99.90
2407;DHT22;37709;53.480;9.688;2023-06-22T05:40:03;19.00;99.90
2407;DHT22;37709;53.480;9.688;2023-06-22T05:42:30;19.10;99.90
2407;DHT22;37709;53.480;9.688;2023-06-22T05:44:57;19.20;99.90
2407;DHT22;37709;53.480;9.688;2023-06-22T05:47:51;19.40;99.90
2407;DHT22;37709;53.480;9.688;2023-06-22T05:50:19;19.80;99.90
2407;DHT22;37709;53.480;9.688;2023-06-22T05:52:46;20.00;99.90
2407;DHT22;37709;53.480;9.688;2023-06-22T05:55:13;20.10;99.90
2407;DHT22;37709;53.480;9.688;2023-06-22T05:57:43;20.30;99.90
2407;DHT22;37709;53.480;9.688;2023-06-22T06:00:10;20.40;99.90
2407;DHT22;37709;53.480;9.688;2023-06-22T06:02:38;20.50;99.90
2407;DHT22;37709;53.480;9.688;2023-06-22T06:05:12;20.60;99.90
2407;DHT22;37709;53.480;9.688;2023-06-22T06:07:42;20.80;99.90
2407;DHT22;37709;53.480;9.688;2023-06-22T06:10:10;21.00;99.90
2407;DHT22;37709;53.480;9.688;2023-06-22T06:12:37;21.30;99.90
2407;DHT22;37709;53.480;9.688;2023-06-22T06:15:05;21.80;99.90
2407;DHT22;37709;53.480;9.688;2023-06-22T06:17:35;22.20;99.90
2407;DHT22;37709;53.480;9.688;2023-06-22T06:22:34;22.70;99.90
2407;DHT22;37709;53.480;9.688;2023-06-22T06:25:01;23.50;99.90
2407;DHT22;37709;53.480;9.688;2023-06-22T06:27:29;23.60;99.90
2407;DHT22;37709;53.480;9.688;2023-06-22T06:29:57;23.60;99.90
2407;DHT22;37709;53.480;9.688;2023-06-22T06:32:24;23.90;99.90
2407;DHT22;37709;53.480;9.688;2023-06-22T06:37:19;24.20;99.90
2407;DHT22;37709;53.480;9.688;2023-06-22T06:39:47;26.60;99.90
2407;DHT22;37709;53.480;9.688;2023-06-22T06:42:14;26.80;99.90
2407;DHT22;37709;53.480;9.688;2023-06-22T06:44:41;27.10;99.90
2407;DHT22;37709;53.480;9.688;2023-06-22T06:47:09;26.60;99.90
2407;DHT22;37709;53.480;9.688;2023-06-22T06:49:36;26.30;99.90
2407;DHT22;37709;53.480;9.688;2023-06-22T06:52:07;26.00;99.90
2407;DHT22;37709;53.480;9.688;2023-06-22T06:54:35;25.60;99.90
2407;DHT22;37709;53.480;9.688;2023-06-22T06:57:03;25.80;99.90
2407;DHT22;37709;53.480;9.688;2023-06-22T06:59:30;26.40;99.90
2407;DHT22;37709;53.480;9.688;2023-06-22T10:49:26;28.10;99.80
2407;DHT22;37709;53.480;9.688;2023-06-22T10:51:54;54.50;27.20
2407;DHT22;37709;53.480;9.688;2023-06-22T10:54:21;54.30;25.80
2407;DHT22;37709;53.480;9.688;2023-06-22T10:56:48;54.30;26.40
2407;DHT22;37709;53.480;9.688;2023-06-22T11:09:12;54.50;25.70
2407;DHT22;37709;53.480;9.688;2023-06-22T11:24:55;53.50;26.10
2407;DHT22;37709;53.480;9.688;2023-06-22T11:27:22;51.50;27.60
2407;DHT22;37709;53.480;9.688;2023-06-22T11:29:49;52.00;27.60
2407;DHT22;37709;53.480;9.688;2023-06-22T11:37:15;51.90;27.00
2407;DHT22;37709;53.480;9.688;2023-06-22T11:39:44;50.40;28.30
2407;DHT22;37709;53.480;9.688;2023-06-22T11:42:19;51.20;28.00
2407;DHT22;37709;53.480;9.688;2023-06-22T11:44:47;51.20;27.90
2407;DHT22;37709;53.480;9.688;2023-06-22T11:47:20;50.60;28.50
2407;DHT22;37709;53.480;9.688;2023-06-22T11:49:52;50.00;28.80
2407;DHT22;37709;53.480;9.688;2023-06-22T11:52:20;49.10;29.30
2407;DHT22;37709;53.480;9.688;2023-06-22T11:54:48;49.40;29.10
2407;DHT22;37709;53.480;9.688;2023-06-22T11:57:16;49.30;29.00
2407;DHT22;37709;53.480;9.688;2023-06-22T12:17:31;49.20;28.50
2407;DHT22;37709;53.480;9.688;2023-06-22T12:32:24;47.80;28.90
2407;DHT22;37709;53.480;9.688;2023-06-22T12:34:52;47.00;31.50
2407;DHT22;37709;53.480;9.688;2023-06-22T12:39:49;48.20;29.60
2407;DHT22;37709;53.480;9.688;2023-06-22T12:42:18;51.50;28.20
2407;DHT22;37709;53.480;9.688;2023-06-22T12:44:45;51.70;26.80
2407;DHT22;37709;53.480;9.688;2023-06-22T12:47:14;49.70;27.90
2407;DHT22;37709;53.480;9.688;2023-06-22T12:49:41;48.60;29.50
2407;DHT22;37709;53.480;9.688;2023-06-22T12:52:09;48.30;29.40
2407;DHT22;37709;53.480;9.688;2023-06-22T12:54:37;48.20;29.60
2407;DHT22;37709;53.480;9.688;2023-06-22T12:57:20;47.80;30.00
2407;DHT22;37709;53.480;9.688;2023-06-22T12:59:47;49.70;28.80
2407;DHT22;37709;53.480;9.688;2023-06-22T13:04:43;51.10;28.30
2407;DHT22;37709;53.480;9.688;2023-06-22T13:07:10;50.70;28.90
2407;DHT22;37709;53.480;9.688;2023-06-22T13:09:50;49.60;28.80
2407;DHT22;37709;53.480;9.688;2023-06-22T13:19:46;48.10;28.80
2407;DHT22;37709;53.480;9.688;2023-06-22T13:27:49;43.30;34.60
2407;DHT22;37709;53.480;9.688;2023-06-22T13:30:17;47.40;30.70
2407;DHT22;37709;53.480;9.688;2023-06-22T13:32:46;47.30;30.70
2407;DHT22;37709;53.480;9.688;2023-06-22T13:35:13;46.10;30.80
2407;DHT22;37709;53.480;9.688;2023-06-22T13:37:41;45.70;31.30
2407;DHT22;37709;53.480;9.688;2023-06-22T13:40:10;46.40;30.30
2407;DHT22;37709;53.480;9.688;2023-06-22T13:45:05;46.00;31.60
2407;DHT22;37709;53.480;9.688;2023-06-22T13:47:33;43.50;34.70
2407;DHT22;37709;53.480;9.688;2023-06-22T17:54:17;42.70;35.50
2407;DHT22;37709;53.480;9.688;2023-06-22T17:56:51;23.40;99.90
2407;DHT22;37709;53.480;9.688;2023-06-22T17:59:19;23.00;99.90
2407;DHT22;37709;53.480;9.688;2023-06-22T18:01:47;22.90;99.90
2407;DHT22;37709;53.480;9.688;2023-06-22T18:04:17;22.90;99.90
2407;DHT22;37709;53.480;9.688;2023-06-22T18:07:11;22.90;99.90
2407;DHT22;37709;53.480;9.688;2023-06-22T18:09:39;22.90;99.90
2407;DHT22;37709;53.480;9.688;2023-06-22T18:12:09;22.80;99.90
2407;DHT22;37709;53.480;9.688;2023-06-22T18:14:37;22.80;99.90
2407;DHT22;37709;53.480;9.688;2023-06-22T18:17:06;22.80;99.90
2407;DHT22;37709;53.480;9.688;2023-06-22T18:19:36;22.80;99.90
2407;DHT22;37709;53.480;9.688;2023-06-22T18:22:05;22.80;99.90
2407;DHT22;37709;53.480;9.688;2023-06-22T18:27:04;22.80;99.90
2407;DHT22;37709;53.480;9.688;2023-06-22T18:29:32;22.70;99.90
2407;DHT22;37709;53.480;9.688;2023-06-22T18:32:00;22.70;99.90
2407;DHT22;37709;53.480;9.688;2023-06-22T18:34:28;22.60;99.90
2407;DHT22;37709;53.480;9.688;2023-06-22T18:37:01;22.60;99.90
2407;DHT22;37709;53.480;9.688;2023-06-22T18:39:31;22.50;99.90
2407;DHT22;37709;53.480;9.688;2023-06-22T18:41:59;22.50;99.90
2407;DHT22;37709;53.480;9.688;2023-06-22T18:44:54;22.40;99.90
2407;DHT22;37709;53.480;9.688;2023-06-22T18:47:31;22.40;99.90
2407;DHT22;37709;53.480;9.688;2023-06-22T18:50:06;22.30;99.90
2407;DHT22;37709;53.480;9.688;2023-06-22T20:59:39;22.30;99.90
2407;DHT22;37709;53.480;9.688;2023-06-22T21:02:08;16.90;99.90
2407;DHT22;37709;53.480;9.688;2023-06-22T21:04:36;16.60;99.90
2407;DHT22;37709;53.480;9.688;2023-06-22T21:07:04;16.40;99.90
2407;DHT22;37709;53.480;9.688;2023-06-22T21:09:33;16.30;99.90
2407;DHT22;37709;53.480;9.688;2023-06-22T21:12:16;16.20;99.90
2407;DHT22;37709;53.480;9.688;2023-06-22T21:14:44;16.10;99.90
2407;DHT22;37709;53.480;9.688;2023-06-22T21:17:11;16.10;99.90
2407;DHT22;37709;53.480;9.688;2023-06-22T21:19:38;16.00;99.90
2407;DHT22;37709;53.480;9.688;2023-06-22T21:22:31;16.10;99.90
2407;DHT22;37709;53.480;9.688;2023-06-22T21:27:38;16.00;99.90
2407;DHT22;37709;53.480;9.688;2023-06-22T21:30:10;16.00;99.90
2407;DHT22;37709;53.480;9.688;2023-06-22T21:32:41;16.00;99.90
2407;DHT22;37709;53.480;9.688;2023-06-22T21:35:09;16.00;99.90
2407;DHT22;37709;53.480;9.688;2023-06-22T21:37:38;16.00;99.90
2407;DHT22;37709;53.480;9.688;2023-06-22T21:40:06;16.00;99.90
2407;DHT22;37709;53.480;9.688;2023-06-22T21:42:59;16.00;99.90
2407;DHT22;37709;53.480;9.688;2023-06-22T21:45:30;16.00;99.90
2407;DHT22;37709;53.480;9.688;2023-06-22T21:47:58;15.90;99.90
2407;DHT22;37709;53.480;9.688;2023-06-22T21:50:26;15.90;99.90
2407;DHT22;37709;53.480;9.688;2023-06-22T21:52:54;15.90;99.90
2407;DHT22;37709;53.480;9.688;2023-06-22T21:55:21;15.90;99.90
2407;DHT22;37709;53.480;9.688;2023-06-22T21:57:48;16.00;99.90
2407;DHT22;37709;53.480;9.688;2023-06-22T22:00:16;15.90;99.90
2407;DHT22;37709;53.480;9.688;2023-06-22T22:02:45;16.00;99.90
2407;DHT22;37709;53.480;9.688;2023-06-22T22:05:12;15.90;99.90
2407;DHT22;37709;53.480;9.688;2023-06-22T22:07:40;15.90;99.90
2407;DHT22;37709;53.480;9.688;2023-06-22T22:10:07;15.90;99.90
2407;DHT22;37709;53.480;9.688;2023-06-22T22:12:36;15.90;99.90
2407;DHT22;37709;53.480;9.688;2023-06-22T22:15:05;15.90;99.90
2407;DHT22;37709;53.480;9.688;2023-06-22T22:17:34;15.90;99.90
2407;DHT22;37709;53.480;9.688;2023-06-22T22:20:02;15.90;99.90
2407;DHT22;37709;53.480;9.688;2023-06-22T22:22:31;15.90;99.90
2407;DHT22;37709;53.480;9.688;2023-06-22T22:24:58;15.90;99.90
2407;DHT22;37709;53.480;9.688;2023-06-22T22:27:25;15.80;99.90
2407;DHT22;37709;53.480;9.688;2023-06-22T22:29:53;15.80;99.90
2407;DHT22;37709;53.480;9.688;2023-06-22T22:32:21;15.80;99.90
2407;DHT22;37709;53.480;9.688;2023-06-22T22:34:48;15.80;99.90
2407;DHT22;37709;53.480;9.688;2023-06-22T22:37:17;15.80;99.90
2407;DHT22;37709;53.480;9.688;2023-06-22T22:39:44;15.80;99.90
2407;DHT22;37709;53.480;9.688;2023-06-22T22:42:14;15.80;99.90
2407;DHT22;37709;53.480;9.688;2023-06-22T22:44:41;15.70;99.90
2407;DHT22;37709;53.480;9.688;2023-06-22T22:47:08;15.70;99.90
2407;DHT22;37709;53.480;9.688;2023-06-22T22:49:36;15.70;99.90
2407;DHT22;37709;53.480;9.688;2023-06-22T22:52:03;15.70;99.90
2407;DHT22;37709;53.480;9.688;2023-06-22T22:54:31;15.70;99.90
2407;DHT22;37709;53.480;9.688;2023-06-22T22:56:59;15.70;99.90
2407;DHT22;37709;53.480;9.688;2023-06-22T22:59:26;15.70;99.90
2407;DHT22;37709;53.480;9.688;2023-06-22T23:01:53;15.70;99.90
2407;DHT22;37709;53.480;9.688;2023-06-22T23:04:21;15.70;99.90
2407;DHT22;37709;53.480;9.688;2023-06-22T23:06:49;15.70;99.90
2407;DHT22;37709;53.480;9.688;2023-06-22T23:09:16;15.70;99.90
2407;DHT22;37709;53.480;9.688;2023-06-22T23:11:43;15.70;99.90
2407;DHT22;37709;53.480;9.688;2023-06-22T23:14:10;15.70;99.90
2407;DHT22;37709;53.480;9.688;2023-06-22T23:16:38;15.80;99.90
2407;DHT22;37709;53.480;9.688;2023-06-22T23:19:09;15.80;99.90
2407;DHT22;37709;53.480;9.688;2023-06-22T23:21:37;15.80;99.90
2407;DHT22;37709;53.480;9.688;2023-06-22T23:24:05;15.80;99.90
2407;DHT22;37709;53.480;9.688;2023-06-22T23:26:32;15.80;99.90
2407;DHT22;37709;53.480;9.688;2023-06-22T23:29:00;15.80;99.90
2407;DHT22;37709;53.480;9.688;2023-06-22T23:31:27;15.80;99.90
2407;DHT22;37709;53.480;9.688;2023-06-22T23:33:55;15.80;99.90
2407;DHT22;37709;53.480;9.688;2023-06-22T23:36:22;15.80;99.90
2407;DHT22;37709;53.480;9.688;2023-06-22T23:38:50;15.90;99.90
2407;DHT22;37709;53.480;9.688;2023-06-22T23:41:17;15.80;99.90
2407;DHT22;37709;53.480;9.688;2023-06-22T23:43:44;15.90;99.90
2407;DHT22;37709;53.480;9.688;2023-06-22T23:46:14;15.90;99.90
2407;DHT22;37709;53.480;9.688;2023-06-22T23:48:42;15.90;99.90
2407;DHT22;37709;53.480;9.688;2023-06-22T23:51:12;15.90;99.90
2407;DHT22;37709;53.480;9.688;2023-06-22T23:53:41;15.90;99.90
2407;DHT22;37709;53.480;9.688;2023-06-22T23:56:08;15.90;99.90
2407;DHT22;37709;53.480;9.688;2023-06-22T23:59:00;15.90;99.90
